Time;durP1;ratioP1;P1;durP2;ratioP2;P2;SDS_P1;SDS_P2;PMS_P1;PMS_P2;Temp;Humidity;BMP_temperature;BMP_pressure;BME280_temperature;BME280_humidity;BME280_pressure;Samples;Min_cycle;Max_cycle;Signal;HPM_P1;HPM_P2
2022/10/28 00:02:03;;;;;;;10.38;4.05;;;18.20;79.30;;;;;;5053505;28;20523;-50
2022/10/28 00:04:28;;;;;;;6.63;3.35;;;18.20;79.10;;;;;;5053145;28;20029;-47
2022/10/28 00:06:54;;;;;;;7.22;3.08;;;18.20;79.00;;;;;;5053054;28;20420;-47
2022/10/28 00:09:20;;;;;;;11.45;3.55;;;18.10;79.20;;;;;;5053368;28;20053;-49
2022/10/28 00:11:45;;;;;;;16.92;4.80;;;18.20;78.90;;;;;;5053001;28;20032;-47
2022/10/28 00:14:12;;;;;;;11.00;3.83;;;18.30;78.60;;;;;;5053158;28;20021;-49
2022/10/28 00:16:38;;;;;;;6.50;4.25;;;18.20;78.30;;;;;;5053112;28;20033;-48
2022/10/28 00:19:05;;;;;;;13.23;4.30;;;18.20;78.40;;;;;;5053190;28;20560;-51
2022/10/28 00:21:33;;;;;;;11.50;3.92;;;18.10;78.60;;;;;;5051620;28;20079;-49
2022/10/28 00:23:59;;;;;;;11.80;4.07;;;18.30;78.10;;;;;;5053063;28;20057;-48
2022/10/28 00:26:27;;;;;;;23.23;3.75;;;18.40;77.20;;;;;;5052763;28;20028;-50
2022/10/28 00:29:01;;;;;;;8.88;3.38;;;18.50;76.60;;;;;;5052958;28;20401;-47
2022/10/28 00:31:29;;;;;;;10.00;3.53;;;18.50;76.50;;;;;;5053284;28;20017;-47
2022/10/28 00:33:55;;;;;;;16.25;3.63;;;18.50;76.10;;;;;;5054136;28;20474;-49
2022/10/28 00:36:26;;;;;;;11.45;3.33;;;18.40;76.60;;;;;;5053017;28;20032;-50
2022/10/28 00:38:53;;;;;;;6.40;3.53;;;18.30;77.00;;;;;;5053345;28;20029;-48
2022/10/28 00:41:36;;;;;;;8.82;4.03;;;18.50;76.50;;;;;;5052604;28;20502;-47
2022/10/28 00:44:39;;;;;;;13.70;3.95;;;18.50;76.00;;;;;;5052942;28;20435;-47
2022/10/28 00:47:14;;;;;;;11.13;3.85;;;18.70;75.40;;;;;;5052574;28;20036;-47
2022/10/28 00:49:41;;;;;;;9.45;3.08;;;18.70;74.90;;;;;;5056473;28;20437;-48
2022/10/28 00:52:15;;;;;;;6.45;3.25;;;18.70;74.80;;;;;;5056736;28;20054;-50
2022/10/28 00:54:42;;;;;;;20.13;4.95;;;18.80;74.50;;;;;;5056931;28;20047;-49
2022/10/28 00:57:13;;;;;;;8.02;3.13;;;18.80;74.10;;;;;;5057181;28;20036;-50
2022/10/28 00:59:44;;;;;;;9.85;3.38;;;18.50;74.90;;;;;;5056656;28;20095;-50
2022/10/28 01:02:09;;;;;;;8.88;3.53;;;18.50;75.20;;;;;;5056710;28;20021;-49
2022/10/28 01:05:18;;;;;;;9.85;3.50;;;18.40;75.50;;;;;;5056194;28;20157;-48
2022/10/28 01:07:44;;;;;;;13.18;3.38;;;18.30;75.50;;;;;;5056145;28;20021;-47
2022/10/28 01:10:12;;;;;;;14.88;3.67;;;18.20;76.00;;;;;;5056378;28;20017;-48
2022/10/28 01:13:05;;;;;;;11.40;5.45;;;18.20;76.30;;;;;;5056158;28;20412;-49
2022/10/28 01:15:54;;;;;;;13.35;3.75;;;18.20;76.60;;;;;;5056427;28;20037;-48
2022/10/28 01:18:46;;;;;;;17.10;4.38;;;18.30;75.30;;;;;;5056128;28;20448;-48
2022/10/28 01:21:29;;;;;;;13.40;4.00;;;18.20;76.10;;;;;;5055962;28;20447;-48
2022/10/28 01:24:16;;;;;;;12.02;4.68;;;18.10;76.40;;;;;;5056248;28;20436;-48
2022/10/28 01:27:00;;;;;;;13.88;4.30;;;18.10;76.80;;;;;;5055657;28;20040;-49
2022/10/28 01:29:53;;;;;;;10.98;4.80;;;18.00;77.10;;;;;;5055987;28;20021;-49
2022/10/28 01:32:38;;;;;;;12.80;3.67;;;18.00;77.40;;;;;;5056006;28;20021;-48
2022/10/28 01:35:09;;;;;;;18.17;4.75;;;17.90;77.10;;;;;;5055928;28;20025;-52
2022/10/28 01:38:19;;;;;;;10.50;3.72;;;17.90;77.40;;;;;;5056050;28;20427;-47
2022/10/28 01:41:07;;;;;;;14.20;4.65;;;17.80;77.40;;;;;;5055769;28;20108;-47
2022/10/28 01:43:44;;;;;;;8.57;2.90;;;17.90;77.10;;;;;;5055749;28;20032;-48
2022/10/28 01:46:33;;;;;;;12.02;3.45;;;18.00;76.70;;;;;;5054956;28;20029;-48
2022/10/28 01:49:19;;;;;;;15.52;3.72;;;18.30;74.90;;;;;;5055930;28;20068;-47
2022/10/28 01:51:54;;;;;;;8.18;3.38;;;18.20;75.50;;;;;;5055852;28;20025;-49
2022/10/28 01:54:26;;;;;;;17.95;5.20;;;18.10;75.40;;;;;;5055802;28;20029;-47
2022/10/28 01:56:54;;;;;;;10.80;4.38;;;18.00;75.90;;;;;;5055949;28;20021;-49
2022/10/28 01:59:23;;;;;;;11.48;4.90;;;18.00;76.40;;;;;;5055033;28;20025;-48
2022/10/28 02:01:49;;;;;;;9.90;4.20;;;17.90;77.00;;;;;;5055433;28;20396;-47
2022/10/28 02:04:15;;;;;;;15.57;4.63;;;17.80;77.60;;;;;;5055255;28;20028;-48
2022/10/28 02:06:43;;;;;;;9.77;3.17;;;17.70;77.60;;;;;;5053969;28;20115;-47
2022/10/28 02:09:47;;;;;;;12.50;4.18;;;17.70;77.90;;;;;;5055227;28;20025;-48
2022/10/28 02:12:22;;;;;;;7.40;3.15;;;17.60;77.90;;;;;;5054488;28;20029;-48
2022/10/28 02:15:06;;;;;;;12.30;5.07;;;17.50;78.00;;;;;;5055169;28;20021;-48
2022/10/28 02:17:36;;;;;;;12.82;3.53;;;17.50;78.50;;;;;;5055013;28;20111;-49
2022/10/28 02:20:27;;;;;;;8.15;3.55;;;17.60;77.80;;;;;;5055577;28;20437;-50
2022/10/28 02:23:27;;;;;;;12.32;5.20;;;17.60;77.30;;;;;;5055297;28;20172;-48
2022/10/28 02:26:05;;;;;;;14.27;6.27;;;17.60;77.30;;;;;;5055292;28;20384;-47
2022/10/28 02:29:05;;;;;;;13.02;3.70;;;17.60;77.00;;;;;;5054873;28;20086;-48
2022/10/28 02:31:52;;;;;;;14.82;4.30;;;17.60;76.30;;;;;;5055334;28;20099;-50
2022/10/28 02:34:22;;;;;;;12.00;4.03;;;17.60;76.40;;;;;;5055070;28;20520;-49
2022/10/28 02:36:53;;;;;;;13.45;4.82;;;17.70;76.50;;;;;;5055028;28;20217;-48
2022/10/28 02:39:24;;;;;;;16.08;4.35;;;17.60;76.50;;;;;;5054574;28;20025;-49
2022/10/28 02:42:06;;;;;;;8.13;2.83;;;17.60;76.50;;;;;;5054835;28;20112;-51
2022/10/28 02:44:37;;;;;;;12.57;3.47;;;17.50;76.30;;;;;;5054859;28;20025;-49
2022/10/28 02:47:09;;;;;;;11.25;3.60;;;17.40;76.90;;;;;;5053176;28;20021;-48
2022/10/28 02:49:38;;;;;;;8.90;4.22;;;17.30;76.90;;;;;;5054570;28;20104;-48
2022/10/28 02:52:06;;;;;;;9.32;3.00;;;17.30;77.40;;;;;;5054434;28;20543;-48
2022/10/28 02:54:57;;;;;;;7.53;3.35;;;17.50;76.70;;;;;;5054677;28;20047;-48
2022/10/28 02:57:31;;;;;;;9.48;4.03;;;17.60;75.90;;;;;;5054575;28;20369;-49
2022/10/28 02:59:59;;;;;;;11.48;3.30;;;17.50;76.40;;;;;;5054594;28;20024;-49
2022/10/28 03:02:26;;;;;;;5.13;3.78;;;17.40;76.60;;;;;;5054286;28;20031;-49
2022/10/28 03:04:52;;;;;;;15.32;6.35;;;17.60;76.40;;;;;;5052856;28;20087;-48
2022/10/28 03:07:18;;;;;;;11.63;3.20;;;17.50;76.40;;;;;;5054870;28;20074;-48
2022/10/28 03:09:43;;;;;;;11.85;3.35;;;17.70;75.80;;;;;;5054179;28;20100;-48
2022/10/28 03:12:09;;;;;;;8.77;3.17;;;17.40;76.20;;;;;;5053692;28;20029;-47
2022/10/28 03:14:35;;;;;;;8.95;3.42;;;17.40;76.60;;;;;;5053923;28;20021;-49
2022/10/28 03:17:00;;;;;;;9.13;3.00;;;17.30;77.30;;;;;;5054424;28;20056;-49
2022/10/28 03:19:26;;;;;;;16.20;3.53;;;17.30;76.90;;;;;;5053950;28;20025;-52
2022/10/28 03:21:52;;;;;;;15.60;4.55;;;17.60;76.10;;;;;;5053835;28;20029;-49
2022/10/28 03:24:17;;;;;;;11.75;3.53;;;17.30;76.70;;;;;;5053819;28;20029;-48
2022/10/28 03:26:43;;;;;;;12.18;3.85;;;17.10;77.60;;;;;;5053922;28;20040;-49
2022/10/28 03:29:08;;;;;;;15.18;4.03;;;17.20;77.60;;;;;;5052516;28;20036;-49
2022/10/28 03:31:34;;;;;;;8.38;3.38;;;17.20;77.50;;;;;;5053757;28;20053;-50
2022/10/28 03:33:59;;;;;;;10.52;4.25;;;17.20;77.80;;;;;;5053759;28;20033;-48
2022/10/28 03:36:25;;;;;;;12.18;3.40;;;17.20;77.10;;;;;;5053659;28;20025;-49
2022/10/28 03:38:51;;;;;;;13.75;4.00;;;17.10;77.90;;;;;;5053564;28;20082;-48
2022/10/28 03:41:16;;;;;;;6.55;3.08;;;17.10;77.80;;;;;;5052798;28;20084;-50
2022/10/28 03:43:42;;;;;;;11.90;3.45;;;17.00;78.30;;;;;;5053511;28;20079;-49
2022/10/28 03:46:08;;;;;;;13.55;4.82;;;16.90;78.40;;;;;;5053768;28;20399;-49
2022/10/28 03:48:33;;;;;;;7.80;3.35;;;16.80;78.80;;;;;;5053914;28;20051;-49
2022/10/28 03:50:59;;;;;;;7.82;3.40;;;16.90;79.10;;;;;;5053355;28;20032;-48
2022/10/28 03:53:25;;;;;;;6.63;3.28;;;17.00;78.70;;;;;;5052154;28;20044;-50
2022/10/28 03:55:52;;;;;;;6.68;3.40;;;17.10;78.50;;;;;;5053537;28;20441;-51
2022/10/28 03:58:18;;;;;;;9.65;3.38;;;17.20;78.50;;;;;;5053240;28;20090;-49
2022/10/28 04:00:43;;;;;;;13.30;3.78;;;17.10;78.20;;;;;;5053207;28;20021;-48
2022/10/28 04:03:09;;;;;;;12.35;3.45;;;17.00;78.30;;;;;;5053694;28;20480;-47
2022/10/28 04:05:35;;;;;;;10.23;3.30;;;16.90;79.10;;;;;;5053426;28;20036;-48
2022/10/28 04:08:00;;;;;;;15.48;4.15;;;16.80;79.10;;;;;;5053373;28;20103;-49
2022/10/28 04:10:26;;;;;;;8.90;3.53;;;16.80;79.40;;;;;;5053468;28;20388;-49
2022/10/28 04:12:51;;;;;;;22.73;3.83;;;16.70;79.90;;;;;;5053316;28;20071;-50
2022/10/28 04:15:17;;;;;;;10.10;3.83;;;16.60;80.00;;;;;;5053490;28;20035;-50
2022/10/28 04:17:42;;;;;;;6.93;3.50;;;16.70;80.20;;;;;;5052983;28;20021;-49
2022/10/28 04:20:08;;;;;;;11.20;3.90;;;16.70;79.90;;;;;;5053176;28;20037;-49
2022/10/28 04:22:34;;;;;;;10.40;3.20;;;16.80;79.90;;;;;;5052994;28;20029;-48
2022/10/28 04:24:59;;;;;;;14.23;5.13;;;16.80;80.00;;;;;;5052959;28;20075;-49
2022/10/28 04:27:25;;;;;;;16.27;4.55;;;16.80;79.80;;;;;;5052734;28;20044;-49
2022/10/28 04:29:51;;;;;;;14.45;4.10;;;16.90;79.30;;;;;;5051680;28;20017;-48
2022/10/28 04:32:16;;;;;;;9.98;3.67;;;16.90;79.20;;;;;;5053204;28;20082;-50
2022/10/28 04:34:42;;;;;;;11.85;4.63;;;16.90;79.50;;;;;;5051622;28;20104;-49
2022/10/28 04:37:07;;;;;;;19.65;3.97;;;16.90;79.30;;;;;;5052763;28;20374;-49
2022/10/28 04:39:33;;;;;;;8.60;3.75;;;16.90;79.20;;;;;;5053071;28;20040;-49
2022/10/28 04:41:59;;;;;;;10.05;3.67;;;17.10;78.80;;;;;;5052709;28;20103;-48
2022/10/28 04:44:24;;;;;;;11.48;3.55;;;17.30;78.40;;;;;;5053008;28;20074;-47
2022/10/28 04:46:50;;;;;;;11.20;3.97;;;17.60;76.80;;;;;;5052853;28;20112;-48
2022/10/28 04:49:15;;;;;;;16.35;4.78;;;17.60;76.60;;;;;;5052666;28;20033;-47
2022/10/28 04:51:41;;;;;;;6.97;3.80;;;17.70;76.00;;;;;;5051276;28;20049;-47
2022/10/28 04:54:07;;;;;;;10.77;3.90;;;17.50;76.90;;;;;;5052823;28;20025;-47
2022/10/28 04:56:32;;;;;;;13.73;3.92;;;17.60;76.30;;;;;;5052525;28;20033;-47
2022/10/28 04:58:59;;;;;;;12.35;3.78;;;17.50;77.00;;;;;;5052667;28;20029;-48
2022/10/28 05:01:24;;;;;;;8.88;4.13;;;17.40;77.30;;;;;;5052633;28;20053;-47
2022/10/28 05:03:50;;;;;;;16.65;4.50;;;17.40;77.30;;;;;;5052565;28;20056;-49
2022/10/28 05:06:16;;;;;;;12.88;4.07;;;17.40;77.20;;;;;;5052631;28;20040;-49
2022/10/28 05:08:41;;;;;;;18.85;4.38;;;17.30;77.60;;;;;;5052448;28;20017;-50
2022/10/28 05:11:07;;;;;;;14.88;5.53;;;17.30;77.80;;;;;;5052516;28;20057;-49
2022/10/28 05:13:32;;;;;;;13.18;3.85;;;17.10;78.30;;;;;;5052856;28;20171;-48
2022/10/28 05:15:58;;;;;;;13.73;4.53;;;17.20;78.20;;;;;;5052460;28;20036;-50
2022/10/28 05:18:24;;;;;;;7.72;4.35;;;17.00;78.30;;;;;;5052548;28;20039;-48
2022/10/28 05:20:53;;;;;;;15.32;5.22;;;16.80;78.90;;;;;;5051020;28;20021;-49
2022/10/28 05:23:22;;;;;;;11.30;4.60;;;16.60;79.90;;;;;;5052299;28;20473;-48
2022/10/28 05:25:49;;;;;;;13.63;4.05;;;16.40;80.50;;;;;;5050889;28;20051;-49
2022/10/28 05:28:15;;;;;;;12.38;5.00;;;16.40;80.80;;;;;;5052083;28;20045;-49
2022/10/28 05:30:42;;;;;;;15.60;5.72;;;16.30;81.30;;;;;;5052244;28;20484;-47
2022/10/28 05:33:09;;;;;;;14.32;7.00;;;16.30;81.50;;;;;;5052389;28;20385;-48
2022/10/28 05:35:35;;;;;;;11.68;5.35;;;16.30;82.20;;;;;;5055111;28;20461;-48
2022/10/28 05:38:01;;;;;;;19.42;5.22;;;16.20;82.50;;;;;;5054928;28;20036;-49
2022/10/28 05:40:27;;;;;;;13.75;4.55;;;16.10;82.80;;;;;;5056252;28;20115;-48
2022/10/28 05:42:53;;;;;;;15.07;7.47;;;15.90;83.00;;;;;;5056013;28;20413;-47
2022/10/28 05:45:18;;;;;;;23.23;6.57;;;15.90;83.40;;;;;;5055468;28;20485;-48
2022/10/28 05:47:46;;;;;;;39.80;7.20;;;15.90;83.80;;;;;;5055609;28;20029;-49
2022/10/28 05:50:13;;;;;;;12.98;6.13;;;15.90;83.90;;;;;;5055896;28;20022;-49
2022/10/28 05:52:39;;;;;;;11.10;3.92;;;16.10;83.40;;;;;;5055318;28;20029;-48
2022/10/28 05:55:05;;;;;;;13.50;4.55;;;16.10;83.50;;;;;;5055378;28;20025;-47
2022/10/28 05:57:34;;;;;;;19.00;5.65;;;16.30;82.60;;;;;;5055304;28;20065;-47
2022/10/28 06:00:00;;;;;;;19.17;5.63;;;16.30;82.30;;;;;;5055325;28;20385;-48
2022/10/28 06:02:26;;;;;;;24.48;5.43;;;16.40;81.90;;;;;;5055149;28;20025;-49
2022/10/28 16:27:19;;;;;;;16.65;3.78;;;21.20;64.60;;;;;;5050838;28;20295;-54
2022/10/28 16:29:45;;;;;;;15.23;3.58;;;21.20;64.70;;;;;;5050502;28;20029;-52
2022/10/28 16:32:12;;;;;;;10.82;4.13;;;21.20;64.70;;;;;;5050413;28;20083;-49
2022/10/28 16:34:38;;;;;;;19.02;5.57;;;21.30;64.40;;;;;;5050354;28;20377;-49
2022/10/28 16:37:19;;;;;;;16.48;4.05;;;21.30;64.30;;;;;;5049904;28;20028;-51
2022/10/28 16:39:45;;;;;;;14.23;4.20;;;21.30;64.40;;;;;;5040612;28;20440;-50
2022/10/28 16:42:11;;;;;;;11.52;4.05;;;21.30;64.40;;;;;;5030354;28;20090;-51
2022/10/28 16:44:37;;;;;;;16.40;4.00;;;21.30;64.70;;;;;;5030233;28;20045;-49
2022/10/28 16:47:12;;;;;;;16.63;5.60;;;21.20;65.00;;;;;;5030245;28;20103;-50
2022/10/28 16:49:39;;;;;;;13.63;3.80;;;21.10;65.50;;;;;;5029799;28;20029;-50
2022/10/28 16:52:05;;;;;;;14.45;4.25;;;21.00;65.80;;;;;;5029876;28;20056;-51
2022/10/28 16:54:31;;;;;;;22.67;5.57;;;20.90;65.90;;;;;;5030082;28;20025;-50
2022/10/28 16:56:57;;;;;;;10.10;3.97;;;20.90;65.90;;;;;;5030353;28;20490;-52
2022/10/28 16:59:22;;;;;;;15.60;4.95;;;20.80;66.20;;;;;;5029869;28;20358;-49
2022/10/28 17:01:49;;;;;;;19.30;5.45;;;20.70;67.00;;;;;;5030032;28;20033;-49
2022/10/28 17:04:15;;;;;;;14.63;3.88;;;20.80;66.80;;;;;;5030052;28;20022;-48
2022/10/28 17:06:40;;;;;;;13.10;4.50;;;20.80;66.40;;;;;;5027950;28;20462;-50
2022/10/28 17:09:06;;;;;;;15.48;4.80;;;20.60;67.10;;;;;;5029468;28;20026;-49
2022/10/28 17:11:32;;;;;;;15.57;4.97;;;20.70;67.10;;;;;;5029441;28;20029;-50
2022/10/28 17:13:57;;;;;;;16.98;4.57;;;20.60;67.10;;;;;;5029218;28;20105;-49
2022/10/28 17:16:24;;;;;;;23.63;6.07;;;20.60;67.10;;;;;;5029605;28;20077;-49
2022/10/28 17:18:49;;;;;;;21.42;4.20;;;20.50;67.30;;;;;;5029193;28;20025;-47
2022/10/28 17:21:15;;;;;;;17.25;4.93;;;20.50;67.40;;;;;;5029409;28;20030;-49
2022/10/28 17:23:41;;;;;;;16.27;5.13;;;20.40;67.60;;;;;;5029324;28;20091;-48
2022/10/28 17:26:07;;;;;;;17.25;4.57;;;20.40;67.80;;;;;;5027566;28;20474;-48
2022/10/28 17:28:33;;;;;;;25.38;6.75;;;20.30;68.40;;;;;;5029678;28;20393;-48
2022/10/28 17:31:03;;;;;;;12.23;4.88;;;20.20;68.70;;;;;;5028464;28;20033;-49
2022/10/28 17:33:29;;;;;;;15.95;5.57;;;20.10;69.20;;;;;;5029735;28;20030;-49
2022/10/28 17:35:55;;;;;;;18.55;4.70;;;20.10;69.10;;;;;;5027605;28;20036;-49
2022/10/28 17:38:20;;;;;;;15.65;4.07;;;20.00;69.50;;;;;;5016961;28;20096;-49
2022/10/28 17:40:54;;;;;;;16.27;5.30;;;20.00;69.80;;;;;;5015927;28;20496;-48
2022/10/28 17:43:20;;;;;;;17.58;4.85;;;20.00;69.80;;;;;;5015613;28;20117;-56
2022/10/28 17:45:46;;;;;;;20.83;6.60;;;20.00;69.90;;;;;;5015892;28;20481;-49
2022/10/28 17:48:11;;;;;;;23.15;6.80;;;19.90;70.00;;;;;;5015158;28;20107;-49
2022/10/28 17:50:37;;;;;;;17.25;6.38;;;19.90;70.40;;;;;;5016092;28;20105;-49
2022/10/28 17:53:02;;;;;;;16.75;5.70;;;19.80;70.50;;;;;;5015403;28;20038;-51
2022/10/28 17:55:28;;;;;;;21.08;4.97;;;19.70;70.80;;;;;;5015231;28;20339;-48
2022/10/28 17:57:54;;;;;;;17.38;6.88;;;19.60;71.20;;;;;;5015599;28;20026;-51
2022/10/28 18:00:19;;;;;;;20.63;6.15;;;19.40;71.30;;;;;;5015453;28;20084;-53
2022/10/28 18:02:45;;;;;;;17.90;7.25;;;19.50;71.60;;;;;;5015270;28;20052;-51
2022/10/28 18:05:11;;;;;;;18.33;5.93;;;19.40;71.90;;;;;;5015117;28;20076;-48
2022/10/28 18:07:36;;;;;;;13.43;5.03;;;19.40;72.00;;;;;;5015282;28;20018;-48
2022/10/28 18:10:02;;;;;;;13.73;5.90;;;19.30;72.50;;;;;;5015032;28;20348;-52
2022/10/28 18:12:28;;;;;;;16.52;6.40;;;19.30;72.60;;;;;;5015184;28;20355;-50
2022/10/28 18:14:54;;;;;;;17.70;5.78;;;19.40;72.40;;;;;;5015055;28;20018;-49
2022/10/28 18:17:19;;;;;;;17.27;5.60;;;19.40;72.00;;;;;;5015036;28;20470;-52
2022/10/28 18:19:45;;;;;;;20.00;4.85;;;19.40;71.90;;;;;;5015071;28;20033;-51
2022/10/28 18:22:11;;;;;;;29.35;6.32;;;19.40;72.20;;;;;;5013734;28;20101;-52
2022/10/28 18:24:36;;;;;;;19.60;5.95;;;19.30;72.40;;;;;;5014853;28;20378;-49
2022/10/28 18:27:02;;;;;;;21.33;6.63;;;19.30;73.00;;;;;;5031442;28;20037;-50
2022/10/28 18:29:28;;;;;;;15.82;6.40;;;19.30;72.70;;;;;;5034974;28;20013;-49
2022/10/28 18:31:53;;;;;;;23.30;6.18;;;19.30;72.80;;;;;;5016809;28;20026;-50
2022/10/28 18:34:20;;;;;;;25.77;7.75;;;19.20;72.90;;;;;;5034206;28;20436;-51
2022/10/28 18:36:46;;;;;;;12.63;6.55;;;19.20;73.10;;;;;;5034921;28;20025;-51
2022/10/28 18:39:11;;;;;;;19.23;6.60;;;19.10;73.20;;;;;;5034316;28;20442;-51
2022/10/28 18:41:41;;;;;;;16.95;5.38;;;19.20;73.30;;;;;;5034268;28;20147;-51
2022/10/28 18:44:11;;;;;;;19.88;5.72;;;19.20;73.10;;;;;;5034120;28;20034;-49
2022/10/28 18:46:37;;;;;;;;;;;19.30;72.80;;;;;;5034876;28;20513;-52
2022/10/28 18:49:04;;;;;;;15.88;4.43;;;19.30;72.60;;;;;;5015701;28;19909;-48
2022/10/28 18:51:31;;;;;;;11.85;4.90;;;19.30;72.50;;;;;;5034711;28;20022;-48
2022/10/28 18:53:56;;;;;;;18.70;5.60;;;19.30;72.70;;;;;;5034201;28;20220;-50
2022/10/28 18:56:24;;;;;;;23.33;5.43;;;19.20;73.00;;;;;;5016380;28;20565;-49
2022/10/28 18:58:51;;;;;;;15.10;5.18;;;19.30;72.80;;;;;;5034325;28;20040;-51
2022/10/28 19:01:22;;;;;;;17.58;4.70;;;19.30;72.90;;;;;;5016530;28;20030;-51
2022/10/28 19:03:53;;;;;;;16.35;4.75;;;19.30;72.80;;;;;;5034096;28;20478;-48
2022/10/28 19:06:20;;;;;;;18.02;5.05;;;19.30;72.70;;;;;;5016840;28;20104;-50
2022/10/28 19:08:52;;;;;;;20.90;5.80;;;19.30;72.80;;;;;;5034212;28;20026;-49
2022/10/28 19:11:18;;;;;;;19.00;5.38;;;19.30;72.80;;;;;;5033806;28;20029;-48
2022/10/28 19:13:44;;;;;;;24.65;5.30;;;19.30;72.80;;;;;;5034250;28;20033;-50
2022/10/28 19:16:09;;;;;;;15.68;5.00;;;19.20;72.90;;;;;;5034096;28;20128;-49
2022/10/28 19:18:37;;;;;;;15.77;5.45;;;19.20;73.10;;;;;;5033815;28;20033;-48
2022/10/28 19:21:13;;;;;;;17.92;5.95;;;19.20;73.20;;;;;;5034496;28;20489;-49
2022/10/28 19:23:39;;;;;;;16.95;4.75;;;19.10;73.60;;;;;;5034011;28;20029;-49
2022/10/28 19:26:06;;;;;;;22.77;5.95;;;19.10;73.60;;;;;;5033454;28;20045;-49
2022/10/28 19:28:46;;;;;;;20.00;6.63;;;18.90;74.10;;;;;;5034041;28;20490;-48
2022/10/28 19:31:16;;;;;;;;;;;18.90;74.40;;;;;;5016634;28;20018;-48
2022/10/28 19:33:43;;;;;;;16.00;6.57;;;18.90;74.40;;;;;;5033324;28;19905;-48
2022/10/28 19:36:22;;;;;;;15.88;5.97;;;18.90;74.50;;;;;;5033659;28;20057;-51
2022/10/28 19:38:49;;;;;;;22.40;6.60;;;18.80;74.60;;;;;;5033380;28;20037;-51
2022/10/28 19:41:20;;;;;;;21.73;6.13;;;18.80;75.10;;;;;;5033538;28;20037;-49
2022/10/28 19:43:46;;;;;;;13.65;5.32;;;18.80;75.00;;;;;;5033626;28;20021;-48
2022/10/28 19:46:18;;;;;;;18.33;6.38;;;18.80;74.80;;;;;;5033183;28;20501;-49
2022/10/28 19:48:47;;;;;;;20.33;6.70;;;18.80;74.90;;;;;;5033300;28;20037;-49
2022/10/28 19:51:17;;;;;;;17.42;6.50;;;18.80;75.10;;;;;;5033553;28;20025;-52
2022/10/28 19:53:51;;;;;;;16.77;6.93;;;18.80;75.00;;;;;;5033683;28;20021;-47
2022/10/28 19:56:17;;;;;;;18.30;5.57;;;18.80;75.30;;;;;;5033140;28;20092;-49
2022/10/28 19:58:45;;;;;;;18.48;5.60;;;18.80;75.40;;;;;;5015406;28;20071;-51
2022/10/28 20:01:12;;;;;;;16.48;5.60;;;18.80;75.20;;;;;;5033124;28;20033;-50
2022/10/28 20:03:39;;;;;;;13.35;5.47;;;18.80;75.20;;;;;;5034099;28;20055;-49
2022/10/28 20:06:07;;;;;;;19.75;5.72;;;18.80;75.10;;;;;;5015214;28;20367;-48
2022/10/28 20:08:39;;;;;;;18.17;5.53;;;18.80;75.50;;;;;;5015239;28;20029;-51
2022/10/28 20:11:07;;;;;;;16.75;4.63;;;18.80;75.30;;;;;;5032965;28;20102;-49
2022/10/28 20:13:33;;;;;;;21.17;6.05;;;18.80;75.70;;;;;;5033082;28;20026;-49
2022/10/28 20:16:02;;;;;;;14.95;6.78;;;18.80;75.80;;;;;;5032884;28;20028;-49
2022/10/28 20:18:30;;;;;;;21.88;6.15;;;18.90;75.70;;;;;;5033125;28;20497;-53
2022/10/28 20:20:55;;;;;;;22.35;6.35;;;18.80;75.60;;;;;;5033162;28;20068;-49
2022/10/28 20:23:21;;;;;;;25.30;7.05;;;18.80;75.90;;;;;;5032716;28;20055;-50
2022/10/28 20:25:51;;;;;;;15.55;6.53;;;18.80;75.60;;;;;;5032483;28;20095;-52
2022/10/28 20:28:17;;;;;;;20.85;7.00;;;18.80;76.30;;;;;;5032976;28;20057;-49
2022/10/28 20:30:44;;;;;;;18.13;6.00;;;18.80;76.20;;;;;;5032901;28;20426;-48
2022/10/28 20:33:09;;;;;;;24.30;5.82;;;18.70;76.40;;;;;;5033428;28;20033;-49
2022/10/28 20:35:35;;;;;;;26.45;6.22;;;18.80;75.90;;;;;;5033457;28;20354;-49
2022/10/28 20:38:00;;;;;;;16.00;5.97;;;18.90;75.90;;;;;;5032872;28;20021;-49
2022/10/28 20:40:26;;;;;;;24.20;6.50;;;18.80;76.00;;;;;;5032915;28;20040;-49
2022/10/28 20:42:52;;;;;;;16.60;6.10;;;18.70;76.60;;;;;;5032695;28;20048;-47
2022/10/28 20:45:17;;;;;;;12.90;5.05;;;18.70;76.60;;;;;;5032368;28;20030;-48
2022/10/28 20:47:43;;;;;;;15.32;5.75;;;18.50;77.00;;;;;;5032810;28;20120;-48
2022/10/28 20:50:09;;;;;;;20.83;6.97;;;18.30;77.70;;;;;;5032820;28;20025;-49
2022/10/28 20:52:34;;;;;;;21.08;6.55;;;18.30;78.00;;;;;;5032774;28;20412;-49
2022/10/28 20:55:00;;;;;;;19.63;5.32;;;18.40;77.70;;;;;;5032940;28;20026;-51
2022/10/28 20:57:26;;;;;;;15.40;6.75;;;18.40;77.80;;;;;;5032749;28;20033;-49
2022/10/28 20:59:51;;;;;;;17.63;6.60;;;18.40;77.80;;;;;;5032526;28;20021;-48
2022/10/28 21:02:17;;;;;;;16.98;6.18;;;18.30;77.80;;;;;;5032823;28;20029;-48
2022/10/28 21:04:44;;;;;;;16.92;8.63;;;18.30;77.90;;;;;;5032326;28;20033;-50
2022/10/28 21:07:09;;;;;;;14.10;6.00;;;18.30;78.40;;;;;;5014593;28;20099;-49
2022/10/28 21:09:36;;;;;;;15.50;6.70;;;18.20;78.60;;;;;;5032418;28;20489;-50
2022/10/28 21:12:02;;;;;;;16.88;5.95;;;18.20;78.60;;;;;;5014901;28;20048;-48
2022/10/28 21:14:29;;;;;;;13.90;6.03;;;18.20;78.60;;;;;;5018537;28;20469;-48
2022/10/28 21:16:57;;;;;;;16.27;6.20;;;18.10;78.90;;;;;;5018575;28;20053;-48
2022/10/28 21:19:22;;;;;;;16.92;6.47;;;18.00;79.20;;;;;;5036310;28;20079;-50
2022/10/28 21:21:48;;;;;;;25.42;7.25;;;17.90;79.50;;;;;;5018852;28;20449;-49
2022/10/28 21:24:14;;;;;;;14.23;5.95;;;17.90;79.70;;;;;;5036253;28;20033;-49
2022/10/28 21:26:39;;;;;;;21.88;7.18;;;17.80;79.70;;;;;;5035521;28;20451;-48
2022/10/28 21:29:05;;;;;;;23.77;10.43;;;17.60;80.30;;;;;;5036143;28;20025;-49
2022/10/28 21:31:31;;;;;;;22.10;7.32;;;17.60;81.00;;;;;;5036098;28;20097;-48
2022/10/28 21:33:57;;;;;;;28.23;7.72;;;17.70;80.70;;;;;;5035753;28;20358;-50
2022/10/28 21:36:23;;;;;;;19.60;6.70;;;17.70;80.50;;;;;;5035719;28;20033;-49
2022/10/28 21:38:53;;;;;;;22.60;6.22;;;17.70;80.60;;;;;;5035648;28;20108;-50
2022/10/28 21:41:19;;;;;;;13.82;6.15;;;17.70;80.80;;;;;;5035983;28;20028;-48
2022/10/28 21:43:48;;;;;;;19.42;7.18;;;17.60;80.60;;;;;;5017676;28;20128;-51
2022/10/28 21:46:15;;;;;;;18.70;6.70;;;17.60;81.00;;;;;;5035552;28;20037;-49
2022/10/28 21:48:41;;;;;;;12.70;6.45;;;17.70;80.50;;;;;;5035410;28;20423;-49
2022/10/28 21:51:09;;;;;;;23.10;6.57;;;17.80;80.30;;;;;;5035677;28;20100;-47
2022/10/28 21:53:36;;;;;;;20.75;6.35;;;17.80;80.40;;;;;;5035869;28;20025;-46
2022/10/28 21:56:02;;;;;;;18.35;6.68;;;17.80;80.40;;;;;;5035284;28;20061;-48
2022/10/28 21:58:28;;;;;;;20.27;6.60;;;17.80;80.40;;;;;;5035678;28;20033;-48
2022/10/28 22:01:01;;;;;;;22.80;7.38;;;17.70;80.70;;;;;;5035206;28;20026;-48
2022/10/28 22:03:26;;;;;;;21.50;6.70;;;17.70;80.90;;;;;;5035413;28;20037;-47
2022/10/28 22:05:52;;;;;;;27.75;6.90;;;17.80;80.90;;;;;;5035099;28;20057;-49
2022/10/28 22:08:17;;;;;;;14.38;7.75;;;18.00;80.10;;;;;;5035038;28;20116;-48
2022/10/28 22:10:43;;;;;;;18.83;7.68;;;17.90;80.00;;;;;;5035018;28;20033;-47
2022/10/28 22:13:09;;;;;;;25.98;6.88;;;17.90;79.80;;;;;;5034958;28;20028;-48
2022/10/28 22:15:34;;;;;;;19.90;6.05;;;17.80;80.10;;;;;;5035059;28;20041;-47
2022/10/28 22:18:00;;;;;;;24.85;6.63;;;17.80;80.40;;;;;;5035009;28;20071;-49
2022/10/28 22:20:25;;;;;;;21.33;6.72;;;17.70;80.50;;;;;;5035156;28;20474;-51
2022/10/28 22:22:51;;;;;;;19.40;7.78;;;17.60;81.10;;;;;;5035122;28;20037;-48
2022/10/28 22:25:16;;;;;;;17.52;6.72;;;17.70;81.00;;;;;;5034866;28;20029;-48
2022/10/28 22:27:43;;;;;;;16.52;7.43;;;17.80;80.90;;;;;;5034806;28;20021;-48
2022/10/28 22:30:11;;;;;;;22.02;6.50;;;17.80;80.90;;;;;;5035231;28;20513;-49
2022/10/28 22:32:36;;;;;;;18.35;6.38;;;17.80;80.50;;;;;;5034714;28;20163;-48
2022/10/28 22:35:02;;;;;;;22.27;7.25;;;17.80;80.70;;;;;;5034833;28;20025;-50
2022/10/28 22:37:28;;;;;;;23.35;7.90;;;17.90;79.90;;;;;;5034731;28;20025;-52
2022/10/28 22:39:53;;;;;;;16.20;6.88;;;17.90;80.40;;;;;;5035099;28;20470;-50
2022/10/28 22:42:19;;;;;;;26.10;7.70;;;17.90;80.30;;;;;;5035042;28;20017;-48
2022/10/28 22:44:44;;;;;;;20.67;7.00;;;18.00;80.20;;;;;;5034561;28;20025;-47
2022/10/28 22:47:10;;;;;;;19.60;8.52;;;18.00;79.60;;;;;;5034490;28;20029;-50
2022/10/28 22:49:36;;;;;;;16.33;6.85;;;18.00;79.80;;;;;;5034848;28;20021;-48
2022/10/28 22:52:02;;;;;;;18.73;7.47;;;17.90;80.00;;;;;;5034441;28;20029;-48
2022/10/28 22:54:27;;;;;;;21.42;7.72;;;17.80;80.40;;;;;;5016654;28;20505;-48
2022/10/28 22:56:53;;;;;;;15.90;7.35;;;17.80;80.70;;;;;;5034281;28;20021;-48
2022/10/28 22:59:18;;;;;;;18.80;6.80;;;17.80;80.80;;;;;;5034239;28;20025;-48
2022/10/28 23:01:44;;;;;;;19.58;6.50;;;17.90;80.70;;;;;;5034162;28;20026;-48
2022/10/28 23:04:10;;;;;;;17.52;7.03;;;17.80;80.60;;;;;;5034317;28;20030;-48
2022/10/28 23:06:37;;;;;;;22.02;8.43;;;17.80;80.80;;;;;;5034217;28;20116;-50
2022/10/28 23:09:02;;;;;;;14.82;6.32;;;17.80;80.70;;;;;;5034042;28;20033;-50